Hellier, Kentucky
Current Conditions -  °F | °C
As of 8:55 PM on Friday 31 Oct 2014 (Local Time) from KPBX Reporting Station
Drizzle Drizzle  
Wind Chill: 28°   Ceiling: 500
Heat Index: 36°   Visibility: 5mi
Dew Point: 35°   Wind: 12mph
Humidity: 97%   Direction: 270°W
Pressure: 29.9"   Gusts: NA
Location:  37.29°N, 82.47°W
Report Text: KPBX 010055Z AUTO 27010KT 5SM DZ OVC005 02/02 A2990 RMK AO2 T00240019
Loading
Personal Weather Stations






























Interactive Weather Map
Tropical Storm Tracking
New forecast layout! Learn more

10-Day Weather Forecast

Advertisements
Track Severe Weather on mobile